sensor_id;sensor_type;location;lat;lon;timestamp;pressure;altitude;pressure_sealevel;temperature;humidity
85066;BME280;75401;52.588;13.224;2024-03-02T00:02:04;100320.06;;;9.93;73.34
85066;BME280;75401;52.588;13.224;2024-03-02T00:04:31;100320.72;;;9.95;73.34
85066;BME280;75401;52.588;13.224;2024-03-02T00:06:56;100311.88;;;9.94;73.50
85066;BME280;75401;52.588;13.224;2024-03-02T00:09:22;100298.63;;;9.85;73.39
85066;BME280;75401;52.588;13.224;2024-03-02T00:11:47;100318.91;;;9.95;73.61
85066;BME280;75401;52.588;13.224;2024-03-02T00:14:12;100314.41;;;9.96;73.41
85066;BME280;75401;52.588;13.224;2024-03-02T00:16:39;100317.91;;;9.96;73.63
85066;BME280;75401;52.588;13.224;2024-03-02T00:19:05;100303.72;;;9.96;73.67
85066;BME280;75401;52.588;13.224;2024-03-02T00:21:31;100311.03;;;9.94;73.75
85066;BME280;75401;52.588;13.224;2024-03-02T00:23:57;100308.88;;;9.97;73.68
85066;BME280;75401;52.588;13.224;2024-03-02T00:26:22;100303.53;;;9.97;73.38
85066;BME280;75401;52.588;13.224;2024-03-02T00:28:47;100306.06;;;9.99;73.45
85066;BME280;75401;52.588;13.224;2024-03-02T00:31:13;100304.38;;;9.98;73.96
85066;BME280;75401;52.588;13.224;2024-03-02T00:33:41;100306.88;;;9.99;73.51
85066;BME280;75401;52.588;13.224;2024-03-02T00:36:07;100314.59;;;10.02;73.82
85066;BME280;75401;52.588;13.224;2024-03-02T00:38:33;100311.91;;;10.02;74.19
85066;BME280;75401;52.588;13.224;2024-03-02T00:41:00;100303.91;;;10.02;73.17
85066;BME280;75401;52.588;13.224;2024-03-02T00:43:42;100303.91;;;10.02;74.21
85066;BME280;75401;52.588;13.224;2024-03-02T00:46:08;100300.88;;;9.97;74.60
85066;BME280;75401;52.588;13.224;2024-03-02T00:48:34;100300.72;;;9.99;74.46
85066;BME280;75401;52.588;13.224;2024-03-02T00:51:01;100282.47;;;9.94;74.48
85066;BME280;75401;52.588;13.224;2024-03-02T00:53:26;100295.88;;;10.02;74.23
85066;BME280;75401;52.588;13.224;2024-03-02T00:55:52;100292.72;;;9.99;74.40
85066;BME280;75401;52.588;13.224;2024-03-02T00:58:17;100294.53;;;9.98;74.50
85066;BME280;75401;52.588;13.224;2024-03-02T01:00:42;100288.03;;;10.01;74.12
85066;BME280;75401;52.588;13.224;2024-03-02T01:03:08;100293.88;;;10.04;74.07
85066;BME280;75401;52.588;13.224;2024-03-02T01:05:33;100296.25;;;10.07;74.26
85066;BME280;75401;52.588;13.224;2024-03-02T01:08:00;100286.09;;;10.11;74.16
85066;BME280;75401;52.588;13.224;2024-03-02T01:10:25;100293.81;;;10.14;73.98
85066;BME280;75401;52.588;13.224;2024-03-02T01:12:50;100292.81;;;10.15;74.30
85066;BME280;75401;52.588;13.224;2024-03-02T01:15:16;100286.63;;;10.15;74.58
85066;BME280;75401;52.588;13.224;2024-03-02T01:17:41;100286.31;;;10.18;74.70
85066;BME280;75401;52.588;13.224;2024-03-02T01:20:08;100289.66;;;10.20;74.39
85066;BME280;75401;52.588;13.224;2024-03-02T01:22:33;100293.03;;;10.22;74.73
85066;BME280;75401;52.588;13.224;2024-03-02T01:25:00;100279.66;;;10.22;74.79
85066;BME280;75401;52.588;13.224;2024-03-02T01:27:26;100284.31;;;10.20;75.06
85066;BME280;75401;52.588;13.224;2024-03-02T01:29:51;100278.97;;;10.20;74.71
85066;BME280;75401;52.588;13.224;2024-03-02T01:32:16;100279.50;;;10.23;75.35
85066;BME280;75401;52.588;13.224;2024-03-02T01:34:42;100278.50;;;10.24;75.14
85066;BME280;75401;52.588;13.224;2024-03-02T01:37:07;100246.63;;;10.05;75.00
85066;BME280;75401;52.588;13.224;2024-03-02T01:39:33;100277.00;;;10.30;75.16
85066;BME280;75401;52.588;13.224;2024-03-02T01:41:59;100264.47;;;10.30;75.18
85066;BME280;75401;52.588;13.224;2024-03-02T01:44:25;100265.50;;;10.29;75.38
85066;BME280;75401;52.588;13.224;2024-03-02T01:46:51;100259.97;;;10.31;74.75
85066;BME280;75401;52.588;13.224;2024-03-02T01:49:16;100262.50;;;10.32;75.12
85066;BME280;75401;52.588;13.224;2024-03-02T01:51:42;100257.97;;;10.33;75.05
85066;BME280;75401;52.588;13.224;2024-03-02T01:54:07;100247.13;;;10.34;75.19
85066;BME280;75401;52.588;13.224;2024-03-02T01:56:33;100244.44;;;10.34;75.24
85066;BME280;75401;52.588;13.224;2024-03-02T01:58:59;100243.97;;;10.39;75.07
85066;BME280;75401;52.588;13.224;2024-03-02T02:01:25;100250.16;;;10.39;75.44
85066;BME280;75401;52.588;13.224;2024-03-02T02:03:50;100246.63;;;10.39;75.16
85066;BME280;75401;52.588;13.224;2024-03-02T02:06:16;100242.44;;;10.36;75.41
85066;BME280;75401;52.588;13.224;2024-03-02T02:08:41;100236.44;;;10.34;75.52
85066;BME280;75401;52.588;13.224;2024-03-02T02:11:06;100234.59;;;10.35;75.72
85066;BME280;75401;52.588;13.224;2024-03-02T02:13:32;100232.75;;;10.35;75.52
85066;BME280;75401;52.588;13.224;2024-03-02T02:16:05;100225.88;;;10.33;75.46
85066;BME280;75401;52.588;13.224;2024-03-02T02:18:31;100222.03;;;10.35;75.13
85066;BME280;75401;52.588;13.224;2024-03-02T02:20:56;100219.38;;;10.35;75.76
85066;BME280;75401;52.588;13.224;2024-03-02T02:23:23;100215.88;;;10.35;75.70
85066;BME280;75401;52.588;13.224;2024-03-02T02:25:48;100216.88;;;10.34;75.51
85066;BME280;75401;52.588;13.224;2024-03-02T02:28:13;100208.69;;;10.35;75.54
85066;BME280;75401;52.588;13.224;2024-03-02T02:30:39;100213.88;;;10.37;75.71
85066;BME280;75401;52.588;13.224;2024-03-02T02:33:04;100164.47;;;10.07;75.47
85066;BME280;75401;52.588;13.224;2024-03-02T02:35:30;100221.91;;;10.37;75.53
85066;BME280;75401;52.588;13.224;2024-03-02T02:37:55;100215.72;;;10.36;75.47
85066;BME280;75401;52.588;13.224;2024-03-02T02:40:23;100211.53;;;10.34;75.56
85066;BME280;75401;52.588;13.224;2024-03-02T02:42:48;100213.22;;;10.35;75.67
85066;BME280;75401;52.588;13.224;2024-03-02T02:45:14;100217.22;;;10.39;75.39
85066;BME280;75401;52.588;13.224;2024-03-02T02:47:40;100217.22;;;10.39;75.50
85066;BME280;75401;52.588;13.224;2024-03-02T02:50:07;100195.28;;;10.27;75.86
85066;BME280;75401;52.588;13.224;2024-03-02T02:52:33;100218.22;;;10.38;75.63
85066;BME280;75401;52.588;13.224;2024-03-02T02:54:59;100214.56;;;10.39;75.71
85066;BME280;75401;52.588;13.224;2024-03-02T02:57:26;100212.72;;;10.39;75.84
85066;BME280;75401;52.588;13.224;2024-03-02T02:59:51;100211.56;;;10.42;75.94
85066;BME280;75401;52.588;13.224;2024-03-02T03:02:16;100219.41;;;10.43;75.83
85066;BME280;75401;52.588;13.224;2024-03-02T03:04:41;100217.56;;;10.44;76.05
85066;BME280;75401;52.588;13.224;2024-03-02T03:07:07;100219.91;;;10.47;76.04
85066;BME280;75401;52.588;13.224;2024-03-02T03:09:32;100220.59;;;10.49;75.64
85066;BME280;75401;52.588;13.224;2024-03-02T03:11:57;100223.09;;;10.50;75.91
85066;BME280;75401;52.588;13.224;2024-03-02T03:14:24;100225.63;;;10.52;75.97
85066;BME280;75401;52.588;13.224;2024-03-02T03:16:49;100220.09;;;10.53;75.97
85066;BME280;75401;52.588;13.224;2024-03-02T03:19:15;100187.78;;;10.31;76.09
85066;BME280;75401;52.588;13.224;2024-03-02T03:21:40;100218.78;;;10.57;76.19
85066;BME280;75401;52.588;13.224;2024-03-02T03:24:05;100217.75;;;10.58;76.64
85066;BME280;75401;52.588;13.224;2024-03-02T03:26:31;100223.78;;;10.60;76.28
85066;BME280;75401;52.588;13.224;2024-03-02T03:28:56;100219.13;;;10.62;76.62
85066;BME280;75401;52.588;13.224;2024-03-02T03:31:23;100227.81;;;10.64;76.18
85066;BME280;75401;52.588;13.224;2024-03-02T03:33:48;100222.28;;;10.66;76.69
85066;BME280;75401;52.588;13.224;2024-03-02T03:36:13;100222.13;;;10.67;76.40
85066;BME280;75401;52.588;13.224;2024-03-02T03:38:39;100230.81;;;10.69;76.85
85066;BME280;75401;52.588;13.224;2024-03-02T03:41:04;100181.81;;;10.45;76.59
85066;BME280;75401;52.588;13.224;2024-03-02T03:43:29;100231.16;;;10.74;76.64
85066;BME280;75401;52.588;13.224;2024-03-02T03:45:54;100230.84;;;10.78;76.71
85066;BME280;75401;52.588;13.224;2024-03-02T03:48:21;100224.47;;;10.79;77.19
85066;BME280;75401;52.588;13.224;2024-03-02T03:50:46;100229.34;;;10.83;76.98
85066;BME280;75401;52.588;13.224;2024-03-02T03:53:12;100220.16;;;10.86;77.01
85066;BME280;75401;52.588;13.224;2024-03-02T03:55:37;100223.19;;;10.91;77.11
85066;BME280;75401;52.588;13.224;2024-03-02T03:58:03;100220.13;;;10.94;76.67
85066;BME280;75401;52.588;13.224;2024-03-02T04:00:28;100217.13;;;10.97;76.95
85066;BME280;75401;52.588;13.224;2024-03-02T04:02:53;100209.09;;;10.97;76.64
85066;BME280;75401;52.588;13.224;2024-03-02T04:05:20;100217.66;;;11.00;76.51
85066;BME280;75401;52.588;13.224;2024-03-02T04:07:45;100226.53;;;11.01;76.72
85066;BME280;75401;52.588;13.224;2024-03-02T04:10:11;100224.50;;;11.03;76.73
85066;BME280;75401;52.588;13.224;2024-03-02T04:12:36;100224.50;;;11.03;76.41
85066;BME280;75401;52.588;13.224;2024-03-02T04:15:02;100233.19;;;11.05;77.01
85066;BME280;75401;52.588;13.224;2024-03-02T04:17:28;100234.88;;;11.06;76.81
85066;BME280;75401;52.588;13.224;2024-03-02T04:19:53;100237.38;;;11.07;76.63
85066;BME280;75401;52.588;13.224;2024-03-02T04:22:20;100237.38;;;11.07;76.82
85066;BME280;75401;52.588;13.224;2024-03-02T04:24:45;100242.41;;;11.10;76.70
85066;BME280;75401;52.588;13.224;2024-03-02T04:27:10;100242.22;;;11.12;76.66
85066;BME280;75401;52.588;13.224;2024-03-02T04:29:36;100243.06;;;11.12;76.97
85066;BME280;75401;52.588;13.224;2024-03-02T04:32:01;100255.97;;;11.09;77.51
85066;BME280;75401;52.588;13.224;2024-03-02T04:34:26;100258.28;;;11.12;77.23
85066;BME280;75401;52.588;13.224;2024-03-02T04:36:52;100248.44;;;11.12;77.21
85066;BME280;75401;52.588;13.224;2024-03-02T04:39:18;100248.44;;;11.12;77.43
85066;BME280;75401;52.588;13.224;2024-03-02T04:41:44;100250.78;;;11.15;77.10
85066;BME280;75401;52.588;13.224;2024-03-02T04:44:09;100251.44;;;11.17;77.07
85066;BME280;75401;52.588;13.224;2024-03-02T04:46:34;100251.28;;;11.19;77.00
85066;BME280;75401;52.588;13.224;2024-03-02T04:49:00;100251.63;;;11.16;76.82
85066;BME280;75401;52.588;13.224;2024-03-02T04:51:25;100250.25;;;11.20;76.78
85066;BME280;75401;52.588;13.224;2024-03-02T04:53:50;100251.28;;;11.19;76.67
85066;BME280;75401;52.588;13.224;2024-03-02T04:56:17;100257.63;;;11.18;76.67
85066;BME280;75401;52.588;13.224;2024-03-02T04:58:42;100256.47;;;11.20;76.57
85066;BME280;75401;52.588;13.224;2024-03-02T05:01:08;100260.97;;;11.20;77.10
85066;BME280;75401;52.588;13.224;2024-03-02T05:03:33;100266.19;;;11.21;77.09
85066;BME280;75401;52.588;13.224;2024-03-02T05:05:59;100263.66;;;11.20;77.14
85066;BME280;75401;52.588;13.224;2024-03-02T05:08:24;100252.59;;;11.15;77.21
85066;BME280;75401;52.588;13.224;2024-03-02T05:10:49;100270.38;;;11.24;77.37
85066;BME280;75401;52.588;13.224;2024-03-02T05:13:16;100273.03;;;11.24;77.36
85066;BME280;75401;52.588;13.224;2024-03-02T05:15:41;100274.38;;;11.28;77.05
85066;BME280;75401;52.588;13.224;2024-03-02T05:18:06;100264.66;;;11.27;76.88
85066;BME280;75401;52.588;13.224;2024-03-02T05:20:32;100271.03;;;11.26;77.45
85066;BME280;75401;52.588;13.224;2024-03-02T05:22:57;100278.88;;;11.27;77.25
85066;BME280;75401;52.588;13.224;2024-03-02T05:25:23;100251.28;;;11.11;77.84
85066;BME280;75401;52.588;13.224;2024-03-02T05:27:48;100282.72;;;11.33;78.14
85066;BME280;75401;52.588;13.224;2024-03-02T05:30:15;100293.78;;;11.38;77.91
85066;BME280;75401;52.588;13.224;2024-03-02T05:32:40;100288.75;;;11.43;78.01
85066;BME280;75401;52.588;13.224;2024-03-02T05:35:06;100295.47;;;11.47;77.90
85066;BME280;75401;52.588;13.224;2024-03-02T05:37:32;100292.63;;;11.49;78.29
85066;BME280;75401;52.588;13.224;2024-03-02T05:39:57;100283.72;;;11.48;77.51
85066;BME280;75401;52.588;13.224;2024-03-02T05:42:22;100282.22;;;11.54;77.80
85066;BME280;75401;52.588;13.224;2024-03-02T05:44:48;100294.25;;;11.58;77.91
85066;BME280;75401;52.588;13.224;2024-03-02T05:47:14;100297.78;;;11.58;77.70
85066;BME280;75401;52.588;13.224;2024-03-02T05:49:40;100300.31;;;11.60;77.81
85066;BME280;75401;52.588;13.224;2024-03-02T05:52:06;100314.19;;;11.63;77.33
85066;BME280;75401;52.588;13.224;2024-03-02T05:54:31;100305.69;;;11.52;78.26
85066;BME280;75401;52.588;13.224;2024-03-02T05:56:56;100314.03;;;11.65;77.60
85066;BME280;75401;52.588;13.224;2024-03-02T05:59:22;100312.88;;;11.67;77.30
85066;BME280;75401;52.588;13.224;2024-03-02T06:01:48;100312.88;;;11.67;77.26
85066;BME280;75401;52.588;13.224;2024-03-02T06:04:14;100322.22;;;11.63;77.16
85066;BME280;75401;52.588;13.224;2024-03-02T06:06:40;100325.75;;;11.64;77.74
85066;BME280;75401;52.588;13.224;2024-03-02T06:09:06;100329.09;;;11.66;77.20
85066;BME280;75401;52.588;13.224;2024-03-02T06:11:32;100334.31;;;11.67;77.58
85066;BME280;75401;52.588;13.224;2024-03-02T06:13:57;100329.09;;;11.66;77.56
85066;BME280;75401;52.588;13.224;2024-03-02T06:16:22;100333.81;;;11.72;76.93
85066;BME280;75401;52.588;13.224;2024-03-02T06:18:48;100328.28;;;11.73;76.81
85066;BME280;75401;52.588;13.224;2024-03-02T06:21:14;100328.28;;;11.73;76.76
85066;BME280;75401;52.588;13.224;2024-03-02T06:23:40;100336.31;;;11.73;76.73
85066;BME280;75401;52.588;13.224;2024-03-02T06:26:05;100341.69;;;11.73;76.69
85066;BME280;75401;52.588;13.224;2024-03-02T06:28:30;100322.78;;;11.75;76.83
85066;BME280;75401;52.588;13.224;2024-03-02T06:30:55;100324.28;;;11.77;76.67
85066;BME280;75401;52.588;13.224;2024-03-02T06:33:21;100316.38;;;11.76;76.53
85066;BME280;75401;52.588;13.224;2024-03-02T06:35:46;100319.72;;;11.78;76.37
85066;BME280;75401;52.588;13.224;2024-03-02T06:38:13;100312.53;;;11.78;76.64
85066;BME280;75401;52.588;13.224;2024-03-02T06:40:38;100320.75;;;11.77;76.66
85066;BME280;75401;52.588;13.224;2024-03-02T06:43:03;100323.25;;;11.78;76.11
85066;BME280;75401;52.588;13.224;2024-03-02T06:45:29;100311.53;;;11.71;76.42
85066;BME280;75401;52.588;13.224;2024-03-02T06:47:54;100315.91;;;11.80;76.44
85066;BME280;75401;52.588;13.224;2024-03-02T06:50:19;100309.50;;;11.81;76.49
85066;BME280;75401;52.588;13.224;2024-03-02T06:52:45;100310.19;;;11.83;76.33
85066;BME280;75401;52.588;13.224;2024-03-02T06:55:11;100309.00;;;11.86;76.36
85066;BME280;75401;52.588;13.224;2024-03-02T06:57:37;100331.47;;;11.85;76.36
85066;BME280;75401;52.588;13.224;2024-03-02T07:00:02;100325.09;;;11.86;76.46
85066;BME280;75401;52.588;13.224;2024-03-02T07:02:28;100331.28;;;11.86;76.21
85066;BME280;75401;52.588;13.224;2024-03-02T07:04:53;100334.81;;;11.87;76.06
85066;BME280;75401;52.588;13.224;2024-03-02T07:07:18;100325.94;;;11.86;76.24
85066;BME280;75401;52.588;13.224;2024-03-02T07:09:44;100332.31;;;11.85;76.17
85066;BME280;75401;52.588;13.224;2024-03-02T07:12:11;100332.31;;;11.85;76.24
85066;BME280;75401;52.588;13.224;2024-03-02T07:14:36;100336.31;;;11.81;76.15
85066;BME280;75401;52.588;13.224;2024-03-02T07:17:01;100332.13;;;11.79;76.53
85066;BME280;75401;52.588;13.224;2024-03-02T07:19:27;100344.22;;;11.83;76.42
85066;BME280;75401;52.588;13.224;2024-03-02T07:21:52;100347.53;;;11.85;76.47
85066;BME280;75401;52.588;13.224;2024-03-02T07:24:17;100348.22;;;11.87;76.47
85066;BME280;75401;52.588;13.224;2024-03-02T07:26:42;100333.63;;;11.89;76.79
85066;BME280;75401;52.588;13.224;2024-03-02T07:29:09;100342.19;;;11.93;76.57
85066;BME280;75401;52.588;13.224;2024-03-02T07:31:35;100341.00;;;11.95;76.57
85066;BME280;75401;52.588;13.224;2024-03-02T07:34:00;100351.53;;;11.97;76.43
85066;BME280;75401;52.588;13.224;2024-03-02T07:36:25;100360.25;;;11.99;76.61
85066;BME280;75401;52.588;13.224;2024-03-02T07:38:51;100361.59;;;12.03;76.62
85066;BME280;75401;52.588;13.224;2024-03-02T07:41:16;100358.06;;;12.03;76.52
85066;BME280;75401;52.588;13.224;2024-03-02T07:43:41;100365.41;;;12.09;76.23
85066;BME280;75401;52.588;13.224;2024-03-02T07:46:08;100376.31;;;12.15;76.38
85066;BME280;75401;52.588;13.224;2024-03-02T07:48:34;100383.69;;;12.21;75.82
85066;BME280;75401;52.588;13.224;2024-03-02T07:50:59;100384.34;;;12.23;75.41
85066;BME280;75401;52.588;13.224;2024-03-02T07:53:24;100387.50;;;12.27;75.83
85066;BME280;75401;52.588;13.224;2024-03-02T07:55:50;100385.84;;;12.26;75.80
85066;BME280;75401;52.588;13.224;2024-03-02T07:58:15;100387.16;;;12.30;75.67
85066;BME280;75401;52.588;13.224;2024-03-02T08:00:40;100387.03;;;12.31;75.72
85066;BME280;75401;52.588;13.224;2024-03-02T08:03:07;100398.56;;;12.32;75.43
85066;BME280;75401;52.588;13.224;2024-03-02T08:05:33;100394.88;;;12.33;75.49
85066;BME280;75401;52.588;13.224;2024-03-02T08:07:58;100395.41;;;12.28;75.42
85066;BME280;75401;52.588;13.224;2024-03-02T08:10:23;100394.88;;;12.33;75.34
85066;BME280;75401;52.588;13.224;2024-03-02T08:12:49;100398.41;;;12.41;75.33
85066;BME280;75401;52.588;13.224;2024-03-02T08:15:14;100378.13;;;12.31;75.43
85066;BME280;75401;52.588;13.224;2024-03-02T08:17:40;100394.22;;;12.39;75.62
85066;BME280;75401;52.588;13.224;2024-03-02T08:20:09;100400.56;;;12.38;75.28
85066;BME280;75401;52.588;13.224;2024-03-02T08:22:34;100402.25;;;12.39;75.30
85066;BME280;75401;52.588;13.224;2024-03-02T08:24:59;100394.53;;;12.44;75.02
85066;BME280;75401;52.588;13.224;2024-03-02T08:27:25;100409.44;;;12.46;75.24
85066;BME280;75401;52.588;13.224;2024-03-02T08:29:50;100405.91;;;12.54;74.94
85066;BME280;75401;52.588;13.224;2024-03-02T08:32:16;100413.63;;;12.57;75.15
85066;BME280;75401;52.588;13.224;2024-03-02T08:34:41;100406.88;;;12.61;74.67
85066;BME280;75401;52.588;13.224;2024-03-02T08:37:07;100407.88;;;12.60;74.95
85066;BME280;75401;52.588;13.224;2024-03-02T08:39:33;100414.75;;;12.62;75.17
85066;BME280;75401;52.588;13.224;2024-03-02T08:41:58;100415.59;;;12.63;75.01
85066;BME280;75401;52.588;13.224;2024-03-02T08:44:23;100416.22;;;12.73;74.74
85066;BME280;75401;52.588;13.224;2024-03-02T08:46:49;100420.41;;;12.76;75.01
85066;BME280;75401;52.588;13.224;2024-03-02T08:49:14;100417.06;;;12.74;74.20
85066;BME280;75401;52.588;13.224;2024-03-02T08:51:40;100427.28;;;12.78;74.48
85066;BME280;75401;52.588;13.224;2024-03-02T08:54:06;100417.56;;;12.77;74.42
85066;BME280;75401;52.588;13.224;2024-03-02T08:56:32;100430.63;;;12.80;73.97
85066;BME280;75401;52.588;13.224;2024-03-02T08:58:57;100429.09;;;12.86;73.77
85066;BME280;75401;52.588;13.224;2024-03-02T09:01:23;100438.66;;;12.88;74.15
85066;BME280;75401;52.588;13.224;2024-03-02T09:03:48;100427.25;;;12.86;74.09
85066;BME280;75401;52.588;13.224;2024-03-02T09:06:14;100428.72;;;12.97;73.91
85066;BME280;75401;52.588;13.224;2024-03-02T09:08:40;100433.91;;;12.98;73.65
85066;BME280;75401;52.588;13.224;2024-03-02T09:11:07;100436.44;;;13.00;73.57
85066;BME280;75401;52.588;13.224;2024-03-02T09:13:33;100433.75;;;13.08;73.62
85066;BME280;75401;52.588;13.224;2024-03-02T09:15:58;100444.31;;;13.09;73.03
85066;BME280;75401;52.588;13.224;2024-03-02T09:18:24;100435.91;;;13.04;73.22
85066;BME280;75401;52.588;13.224;2024-03-02T09:20:49;100439.94;;;13.08;73.28
85066;BME280;75401;52.588;13.224;2024-03-02T09:23:14;100452.19;;;13.11;72.97
85066;BME280;75401;52.588;13.224;2024-03-02T09:25:40;100449.81;;;13.16;72.94
85066;BME280;75401;52.588;13.224;2024-03-02T09:28:06;100453.63;;;13.21;72.86
85066;BME280;75401;52.588;13.224;2024-03-02T09:30:32;100460.03;;;13.20;72.68
85066;BME280;75401;52.588;13.224;2024-03-02T09:32:57;100449.66;;;13.17;72.70
85066;BME280;75401;52.588;13.224;2024-03-02T09:35:22;100454.28;;;13.23;72.28
85066;BME280;75401;52.588;13.224;2024-03-02T09:37:48;100457.47;;;13.27;72.07
85066;BME280;75401;52.588;13.224;2024-03-02T09:40:14;100461.00;;;13.28;72.38
85066;BME280;75401;52.588;13.224;2024-03-02T09:42:40;100458.81;;;13.31;72.05
85066;BME280;75401;52.588;13.224;2024-03-02T09:45:08;100458.81;;;13.31;72.06
85066;BME280;75401;52.588;13.224;2024-03-02T09:47:34;100460.97;;;13.36;71.61
85066;BME280;75401;52.588;13.224;2024-03-02T09:49:59;100461.44;;;13.39;71.44
85066;BME280;75401;52.588;13.224;2024-03-02T09:52:25;100452.03;;;13.43;71.87
85066;BME280;75401;52.588;13.224;2024-03-02T09:54:51;100442.94;;;13.44;71.64
85066;BME280;75401;52.588;13.224;2024-03-02T09:57:16;100442.28;;;13.42;70.67
85066;BME280;75401;52.588;13.224;2024-03-02T09:59:41;100446.47;;;13.45;71.18
85066;BME280;75401;52.588;13.224;2024-03-02T10:02:08;100453.19;;;13.49;71.31
85066;BME280;75401;52.588;13.224;2024-03-02T10:04:34;100451.44;;;13.56;70.50
85066;BME280;75401;52.588;13.224;2024-03-02T10:07:13;100449.16;;;13.67;71.00
85066;BME280;75401;52.588;13.224;2024-03-02T10:09:39;100444.94;;;13.73;71.09
85066;BME280;75401;52.588;13.224;2024-03-02T10:12:05;100447.28;;;13.76;69.91
85066;BME280;75401;52.588;13.224;2024-03-02T10:14:31;100437.00;;;13.79;69.86
85066;BME280;75401;52.588;13.224;2024-03-02T10:17:02;100438.41;;;13.90;69.71
85066;BME280;75401;52.588;13.224;2024-03-02T10:19:29;100440.59;;;13.95;69.43
85066;BME280;75401;52.588;13.224;2024-03-02T10:21:54;100443.72;;;13.98;69.90
85066;BME280;75401;52.588;13.224;2024-03-02T10:24:21;100446.72;;;14.03;69.56
85066;BME280;75401;52.588;13.224;2024-03-02T10:26:47;100444.50;;;14.07;69.21
85066;BME280;75401;52.588;13.224;2024-03-02T10:29:13;100443.31;;;14.09;69.64
85066;BME280;75401;52.588;13.224;2024-03-02T10:31:39;100445.09;;;14.17;69.42
85066;BME280;75401;52.588;13.224;2024-03-02T10:34:05;100416.13;;;14.04;69.14
85066;BME280;75401;52.588;13.224;2024-03-02T10:36:32;100446.00;;;14.32;69.30
85066;BME280;75401;52.588;13.224;2024-03-02T10:38:58;100445.28;;;14.38;68.43
85066;BME280;75401;52.588;13.224;2024-03-02T10:41:24;100444.06;;;14.40;68.65
85066;BME280;75401;52.588;13.224;2024-03-02T10:43:52;100441.94;;;14.51;67.80
85066;BME280;75401;52.588;13.224;2024-03-02T10:46:19;100447.69;;;14.62;67.26
85066;BME280;75401;52.588;13.224;2024-03-02T10:48:46;100449.47;;;14.70;67.77
85066;BME280;75401;52.588;13.224;2024-03-02T10:51:11;100448.66;;;14.84;66.93
85066;BME280;75401;52.588;13.224;2024-03-02T10:53:38;100451.06;;;14.93;66.46
85066;BME280;75401;52.588;13.224;2024-03-02T10:56:07;100453.09;;;15.06;65.47
85066;BME280;75401;52.588;13.224;2024-03-02T10:58:34;100451.41;;;15.20;65.92
85066;BME280;75401;52.588;13.224;2024-03-02T11:01:02;100440.91;;;15.25;65.76
85066;BME280;75401;52.588;13.224;2024-03-02T11:03:29;100445.06;;;15.27;65.04
85066;BME280;75401;52.588;13.224;2024-03-02T11:05:59;100452.22;;;15.35;64.52
85066;BME280;75401;52.588;13.224;2024-03-02T11:08:26;100448.09;;;15.39;64.32
85066;BME280;75401;52.588;13.224;2024-03-02T11:10:58;100445.66;;;15.44;63.78
85066;BME280;75401;52.588;13.224;2024-03-02T11:13:27;100441.78;;;15.46;64.50
85066;BME280;75401;52.588;13.224;2024-03-02T11:15:59;100442.84;;;15.45;64.04
85066;BME280;75401;52.588;13.224;2024-03-02T11:18:26;100444.97;;;15.35;63.31
85066;BME280;75401;52.588;13.224;2024-03-02T11:20:52;100448.66;;;15.49;64.14
85066;BME280;75401;52.588;13.224;2024-03-02T11:23:18;100442.47;;;15.48;64.53
85066;BME280;75401;52.588;13.224;2024-03-02T11:25:43;100448.28;;;15.52;64.01
85066;BME280;75401;52.588;13.224;2024-03-02T11:28:10;100439.44;;;15.58;64.04
85066;BME280;75401;52.588;13.224;2024-03-02T11:30:52;100436.75;;;15.58;63.41
85066;BME280;75401;52.588;13.224;2024-03-02T11:33:23;100440.47;;;15.57;63.23
85066;BME280;75401;52.588;13.224;2024-03-02T11:35:49;100443.34;;;15.55;62.21
85066;BME280;75401;52.588;13.224;2024-03-02T11:38:15;100427.88;;;15.64;62.46
85066;BME280;75401;52.588;13.224;2024-03-02T11:40:41;100417.66;;;15.59;64.34
85066;BME280;75401;52.588;13.224;2024-03-02T11:43:06;100428.59;;;15.72;63.01
85066;BME280;75401;52.588;13.224;2024-03-02T11:45:33;100424.47;;;15.77;62.47
85066;BME280;75401;52.588;13.224;2024-03-02T11:47:59;100432.19;;;15.80;62.30
85066;BME280;75401;52.588;13.224;2024-03-02T11:50:33;100429.09;;;15.83;63.41
85066;BME280;75401;52.588;13.224;2024-03-02T11:53:00;100435.41;;;15.90;63.19
85066;BME280;75401;52.588;13.224;2024-03-02T11:55:26;100437.06;;;15.91;62.64
85066;BME280;75401;52.588;13.224;2024-03-02T11:57:52;100435.00;;;15.93;61.81
85066;BME280;75401;52.588;13.224;2024-03-02T12:00:17;100431.69;;;15.91;61.32
85066;BME280;75401;52.588;13.224;2024-03-02T12:02:45;100443.34;;;15.98;62.33
85066;BME280;75401;52.588;13.224;2024-03-02T12:05:11;100443.63;;;16.03;62.62
85066;BME280;75401;52.588;13.224;2024-03-02T12:07:36;100440.50;;;15.99;61.29
85066;BME280;75401;52.588;13.224;2024-03-02T12:10:02;100438.44;;;16.01;62.04
85066;BME280;75401;52.588;13.224;2024-03-02T12:12:27;100440.91;;;16.03;62.27
85066;BME280;75401;52.588;13.224;2024-03-02T12:14:53;100443.88;;;16.08;61.95
85066;BME280;75401;52.588;13.224;2024-03-02T12:17:18;100445.56;;;16.09;60.11
85066;BME280;75401;52.588;13.224;2024-03-02T12:19:45;100442.31;;;16.20;60.68
85066;BME280;75401;52.588;13.224;2024-03-02T12:22:10;100438.97;;;16.18;60.06
85066;BME280;75401;52.588;13.224;2024-03-02T12:24:36;100434.06;;;16.28;61.42
85066;BME280;75401;52.588;13.224;2024-03-02T12:27:01;100434.06;;;16.28;60.06
85066;BME280;75401;52.588;13.224;2024-03-02T12:29:27;100433.28;;;16.34;60.05
85066;BME280;75401;52.588;13.224;2024-03-02T12:31:52;100428.34;;;16.38;59.56
85066;BME280;75401;52.588;13.224;2024-03-02T12:34:18;100430.84;;;16.39;59.97